createdAt,value
2022-10-04T14:34:38.711Z,1.00
2022-10-04T14:37:27.027Z,1.00
2022-10-04T14:40:09.028Z,1.00
2022-10-04T14:42:47.464Z,99.90
2022-10-04T14:45:25.507Z,1.00
2022-10-04T14:48:22.730Z,1.00
2022-10-04T14:51:15.383Z,1.00
2022-10-04T14:53:51.340Z,99.90
2022-10-04T14:56:34.873Z,1.00
2022-10-04T14:59:09.477Z,1.00
2022-10-04T15:01:40.657Z,1.00
2022-10-04T15:04:17.096Z,1.00
2022-10-04T15:06:50.240Z,1.00
2022-10-04T15:09:34.462Z,99.90
2022-10-04T15:12:58.627Z,99.90
2022-10-04T15:15:24.101Z,93.20
2022-10-04T15:17:57.590Z,54.00
2022-10-04T15:20:29.515Z,99.90
2022-10-04T15:23:10.676Z,1.00
2022-10-04T15:25:41.359Z,99.90
2022-10-04T15:28:14.359Z,99.90
2022-10-04T15:30:52.481Z,99.90
2022-10-04T15:33:30.563Z,1.00
2022-10-04T15:36:25.637Z,1.00
2022-10-04T15:39:01.832Z,1.00
2022-10-04T15:41:35.477Z,1.00
2022-10-04T15:44:27.982Z,1.00
2022-10-04T15:46:58.332Z,1.00
2022-10-04T15:49:29.406Z,1.00
2022-10-04T15:52:18.298Z,1.00
2022-10-04T15:55:04.414Z,1.00
2022-10-04T15:57:38.602Z,1.00
2022-10-04T16:00:11.141Z,1.00
2022-10-04T16:02:48.693Z,1.00
2022-10-04T16:05:24.262Z,2.00
2022-10-04T16:08:03.894Z,21.60
2022-10-04T16:10:52.299Z,64.80
2022-10-04T16:13:34.235Z,97.80
2022-10-04T16:16:24.635Z,92.50
2022-10-04T16:18:56.544Z,99.90
2022-10-04T16:21:29.875Z,99.90
2022-10-04T16:24:12.678Z,99.90
2022-10-04T16:26:59.375Z,99.90
2022-10-04T16:29:33.603Z,99.90
2022-10-04T16:32:04.246Z,99.90
2022-10-04T16:34:42.205Z,99.90
2022-10-04T16:37:29.547Z,99.90
2022-10-04T16:40:05.531Z,99.90
2022-10-04T16:42:42.465Z,99.90
2022-10-04T16:45:25.450Z,99.90
2022-10-04T16:47:56.466Z,99.90
2022-10-04T16:50:39.215Z,99.90
2022-10-04T16:53:22.619Z,99.90
2022-10-04T16:55:56.167Z,99.90
2022-10-04T16:58:44.774Z,99.90
2022-10-04T17:01:32.440Z,99.90
2022-10-04T17:04:08.591Z,99.90
2022-10-04T17:06:44.803Z,99.90
2022-10-04T17:09:18.749Z,99.90
2022-10-04T17:11:54.031Z,99.90
2022-10-04T17:14:37.182Z,99.90
2022-10-04T17:17:12.460Z,99.90
2022-10-04T17:19:47.135Z,99.90
2022-10-04T17:22:23.236Z,99.90
2022-10-04T17:25:00.091Z,99.90
2022-10-04T17:27:34.179Z,99.90
2022-10-04T17:30:06.539Z,99.90
2022-10-04T17:32:42.049Z,99.90
2022-10-04T17:35:42.266Z,99.90
2022-10-04T17:38:13.744Z,99.90
2022-10-04T17:40:45.720Z,99.90
2022-10-04T17:43:17.222Z,99.90
2022-10-04T17:45:51.895Z,99.90
2022-10-04T17:48:39.657Z,99.90
2022-10-04T17:51:31.638Z,99.90
2022-10-04T17:54:20.621Z,99.90
2022-10-04T17:56:50.554Z,99.90
2022-10-04T17:59:21.683Z,99.90
2022-10-04T18:01:53.159Z,99.90
2022-10-04T18:04:26.461Z,99.90
2022-10-04T18:06:59.087Z,99.90
2022-10-04T18:09:32.509Z,99.90
2022-10-04T18:12:04.221Z,99.90
2022-10-04T18:14:53.454Z,99.90
2022-10-04T18:17:32.089Z,99.90
2022-10-04T18:20:15.718Z,99.90
2022-10-04T18:22:54.644Z,99.90
2022-10-04T18:25:28.754Z,99.90
2022-10-04T18:28:08.270Z,99.90
2022-10-04T18:30:59.315Z,99.90
2022-10-04T18:33:33.419Z,99.90
2022-10-04T18:36:05.989Z,99.90
2022-10-04T18:38:36.400Z,99.90
2022-10-04T18:41:06.062Z,99.90
2022-10-04T18:43:36.184Z,99.90
2022-10-04T18:46:07.618Z,99.90
2022-10-04T18:48:42.199Z,99.90
2022-10-04T18:51:25.350Z,99.90
2022-10-04T18:54:00.204Z,99.90
2022-10-04T18:56:34.096Z,99.90
2022-10-04T18:59:26.526Z,99.90
2022-10-04T19:02:06.283Z,99.90
2022-10-04T19:04:56.871Z,99.90
2022-10-04T19:07:32.177Z,99.90
2022-10-04T19:10:19.305Z,99.90
2022-10-04T19:12:55.407Z,99.90
2022-10-04T19:15:28.635Z,99.90
2022-10-04T19:18:02.973Z,99.90
2022-10-04T19:20:37.065Z,99.90
2022-10-04T19:23:19.063Z,99.90
2022-10-04T19:26:26.206Z,99.90
2022-10-04T19:28:43.833Z,99.90
2022-10-04T19:31:17.455Z,99.90
2022-10-04T19:33:50.010Z,99.90
2022-10-04T19:36:26.603Z,99.90
2022-10-04T19:39:02.270Z,99.90
2022-10-04T19:41:39.427Z,99.90
2022-10-04T19:44:17.977Z,99.90
2022-10-04T19:46:50.688Z,99.90
2022-10-04T19:49:21.692Z,99.90
2022-10-04T19:51:51.554Z,99.90
2022-10-04T19:54:21.564Z,99.90
2022-10-04T19:56:50.301Z,99.90
2022-10-04T19:59:22.082Z,99.90
2022-10-04T20:01:53.225Z,99.90
2022-10-04T20:04:39.681Z,99.90
